sensor_id;sensor_type;location;lat;lon;timestamp;P1;durP1;ratioP1;P2;durP2;ratioP2
1885;SDS011;943;51.568;6.998;2023-02-03T00:00:18;30.80;;;19.13;;
1885;SDS011;943;51.568;6.998;2023-02-03T00:02:46;28.63;;;18.27;;
1885;SDS011;943;51.568;6.998;2023-02-03T00:05:14;33.80;;;21.07;;
1885;SDS011;943;51.568;6.998;2023-02-03T00:07:42;28.60;;;18.87;;
1885;SDS011;943;51.568;6.998;2023-02-03T00:10:10;23.67;;;18.23;;
1885;SDS011;943;51.568;6.998;2023-02-03T00:12:38;30.30;;;20.10;;
1885;SDS011;943;51.568;6.998;2023-02-03T00:15:07;29.00;;;20.23;;
1885;SDS011;943;51.568;6.998;2023-02-03T00:17:35;29.80;;;19.87;;
1885;SDS011;943;51.568;6.998;2023-02-03T00:20:03;29.80;;;21.60;;
1885;SDS011;943;51.568;6.998;2023-02-03T00:22:32;24.30;;;19.57;;
1885;SDS011;943;51.568;6.998;2023-02-03T00:25:00;30.30;;;20.97;;
1885;SDS011;943;51.568;6.998;2023-02-03T00:27:29;29.50;;;19.60;;
1885;SDS011;943;51.568;6.998;2023-02-03T00:29:58;28.57;;;18.60;;
1885;SDS011;943;51.568;6.998;2023-02-03T00:32:26;24.23;;;16.87;;
1885;SDS011;943;51.568;6.998;2023-02-03T00:34:55;23.23;;;17.97;;
1885;SDS011;943;51.568;6.998;2023-02-03T00:37:23;28.03;;;17.73;;
1885;SDS011;943;51.568;6.998;2023-02-03T00:39:51;25.17;;;17.67;;
1885;SDS011;943;51.568;6.998;2023-02-03T00:42:19;28.17;;;17.63;;
1885;SDS011;943;51.568;6.998;2023-02-03T00:44:47;26.10;;;17.53;;
1885;SDS011;943;51.568;6.998;2023-02-03T00:47:15;28.60;;;19.33;;
1885;SDS011;943;51.568;6.998;2023-02-03T00:49:43;33.03;;;20.20;;
1885;SDS011;943;51.568;6.998;2023-02-03T00:52:10;29.07;;;18.93;;
1885;SDS011;943;51.568;6.998;2023-02-03T00:54:38;25.73;;;18.83;;
1885;SDS011;943;51.568;6.998;2023-02-03T00:57:06;28.40;;;18.70;;
1885;SDS011;943;51.568;6.998;2023-02-03T00:59:34;38.77;;;20.57;;
1885;SDS011;943;51.568;6.998;2023-02-03T01:02:10;27.17;;;18.60;;
1885;SDS011;943;51.568;6.998;2023-02-03T01:04:38;35.63;;;20.50;;
1885;SDS011;943;51.568;6.998;2023-02-03T01:07:06;25.77;;;19.73;;
1885;SDS011;943;51.568;6.998;2023-02-03T01:09:34;39.80;;;20.17;;
1885;SDS011;943;51.568;6.998;2023-02-03T01:12:03;28.57;;;19.83;;
1885;SDS011;943;51.568;6.998;2023-02-03T01:14:32;27.30;;;17.57;;
1885;SDS011;943;51.568;6.998;2023-02-03T01:17:02;25.67;;;16.23;;
1885;SDS011;943;51.568;6.998;2023-02-03T01:19:31;29.13;;;19.43;;
1885;SDS011;943;51.568;6.998;2023-02-03T01:22:00;30.43;;;18.47;;
1885;SDS011;943;51.568;6.998;2023-02-03T01:24:30;28.53;;;18.73;;
1885;SDS011;943;51.568;6.998;2023-02-03T01:26:57;26.70;;;18.83;;
1885;SDS011;943;51.568;6.998;2023-02-03T01:29:28;27.07;;;18.73;;
1885;SDS011;943;51.568;6.998;2023-02-03T01:31:59;31.33;;;18.60;;
1885;SDS011;943;51.568;6.998;2023-02-03T01:34:33;22.43;;;16.63;;
1885;SDS011;943;51.568;6.998;2023-02-03T01:37:04;25.50;;;17.70;;
1885;SDS011;943;51.568;6.998;2023-02-03T01:39:33;22.03;;;16.03;;
1885;SDS011;943;51.568;6.998;2023-02-03T01:42:03;25.53;;;16.50;;
1885;SDS011;943;51.568;6.998;2023-02-03T01:44:45;28.13;;;17.70;;
1885;SDS011;943;51.568;6.998;2023-02-03T01:47:21;22.90;;;17.00;;
1885;SDS011;943;51.568;6.998;2023-02-03T01:50:26;22.00;;;16.40;;
1885;SDS011;943;51.568;6.998;2023-02-03T01:53:05;23.03;;;16.63;;
1885;SDS011;943;51.568;6.998;2023-02-03T01:55:41;22.00;;;15.30;;
1885;SDS011;943;51.568;6.998;2023-02-03T01:58:25;24.23;;;15.70;;
1885;SDS011;943;51.568;6.998;2023-02-03T02:01:01;31.00;;;16.00;;
1885;SDS011;943;51.568;6.998;2023-02-03T02:03:30;25.33;;;17.70;;
1885;SDS011;943;51.568;6.998;2023-02-03T02:06:20;25.03;;;17.30;;
1885;SDS011;943;51.568;6.998;2023-02-03T02:08:49;27.20;;;15.63;;
1885;SDS011;943;51.568;6.998;2023-02-03T02:11:20;20.87;;;15.07;;
1885;SDS011;943;51.568;6.998;2023-02-03T02:13:49;24.47;;;15.40;;
1885;SDS011;943;51.568;6.998;2023-02-03T02:41:55;22.00;;;13.43;;
1885;SDS011;943;51.568;6.998;2023-02-03T02:44:55;22.00;;;13.77;;
1885;SDS011;943;51.568;6.998;2023-02-03T02:47:42;22.87;;;14.10;;
1885;SDS011;943;51.568;6.998;2023-02-03T02:50:19;25.17;;;14.13;;
1885;SDS011;943;51.568;6.998;2023-02-03T02:53:00;28.63;;;13.57;;
1885;SDS011;943;51.568;6.998;2023-02-03T02:55:32;19.53;;;12.87;;
1885;SDS011;943;51.568;6.998;2023-02-03T02:58:07;19.43;;;13.60;;
1885;SDS011;943;51.568;6.998;2023-02-03T03:00:43;19.43;;;13.87;;
1885;SDS011;943;51.568;6.998;2023-02-03T03:03:12;23.50;;;15.00;;
1885;SDS011;943;51.568;6.998;2023-02-03T03:08:57;18.77;;;13.80;;
1885;SDS011;943;51.568;6.998;2023-02-03T03:11:52;17.80;;;13.43;;
1885;SDS011;943;51.568;6.998;2023-02-03T03:14:48;16.33;;;11.10;;
1885;SDS011;943;51.568;6.998;2023-02-03T03:17:27;18.90;;;11.60;;
1885;SDS011;943;51.568;6.998;2023-02-03T03:20:08;18.73;;;11.87;;
1885;SDS011;943;51.568;6.998;2023-02-03T03:22:55;17.60;;;10.60;;
1885;SDS011;943;51.568;6.998;2023-02-03T03:25:35;14.60;;;10.53;;
1885;SDS011;943;51.568;6.998;2023-02-03T03:28:15;19.53;;;12.90;;
1885;SDS011;943;51.568;6.998;2023-02-03T03:31:00;17.00;;;12.27;;
1885;SDS011;943;51.568;6.998;2023-02-03T03:33:29;14.43;;;10.93;;
1885;SDS011;943;51.568;6.998;2023-02-03T03:36:02;21.53;;;10.63;;
1885;SDS011;943;51.568;6.998;2023-02-03T03:39:43;12.60;;;9.00;;
1885;SDS011;943;51.568;6.998;2023-02-03T03:42:26;21.30;;;9.10;;
1885;SDS011;943;51.568;6.998;2023-02-03T03:45:18;17.77;;;9.73;;
1885;SDS011;943;51.568;6.998;2023-02-03T03:48:46;18.73;;;8.90;;
1885;SDS011;943;51.568;6.998;2023-02-03T03:51:30;17.10;;;7.90;;
1885;SDS011;943;51.568;6.998;2023-02-03T03:54:22;13.70;;;8.97;;
1885;SDS011;943;51.568;6.998;2023-02-03T03:57:04;18.93;;;8.43;;
1885;SDS011;943;51.568;6.998;2023-02-03T03:59:48;15.60;;;8.47;;
1885;SDS011;943;51.568;6.998;2023-02-03T04:02:17;11.93;;;8.10;;
1885;SDS011;943;51.568;6.998;2023-02-03T04:04:48;12.00;;;7.77;;
1885;SDS011;943;51.568;6.998;2023-02-03T04:07:20;19.33;;;8.17;;
1885;SDS011;943;51.568;6.998;2023-02-03T04:09:47;14.30;;;6.90;;
1885;SDS011;943;51.568;6.998;2023-02-03T04:12:19;16.60;;;6.40;;
1885;SDS011;943;51.568;6.998;2023-02-03T04:14:50;14.77;;;7.30;;
1885;SDS011;943;51.568;6.998;2023-02-03T04:17:18;12.80;;;7.37;;
1885;SDS011;943;51.568;6.998;2023-02-03T04:19:46;12.43;;;6.57;;
1885;SDS011;943;51.568;6.998;2023-02-03T04:22:14;16.77;;;7.00;;
1885;SDS011;943;51.568;6.998;2023-02-03T04:24:42;17.20;;;7.30;;
1885;SDS011;943;51.568;6.998;2023-02-03T04:27:10;11.53;;;5.80;;
1885;SDS011;943;51.568;6.998;2023-02-03T04:29:38;15.80;;;6.67;;
1885;SDS011;943;51.568;6.998;2023-02-03T04:32:05;13.37;;;6.27;;
1885;SDS011;943;51.568;6.998;2023-02-03T04:34:33;14.10;;;6.80;;
1885;SDS011;943;51.568;6.998;2023-02-03T04:37:01;13.40;;;7.20;;
1885;SDS011;943;51.568;6.998;2023-02-03T04:39:28;11.63;;;6.23;;
1885;SDS011;943;51.568;6.998;2023-02-03T04:41:56;11.43;;;6.77;;
1885;SDS011;943;51.568;6.998;2023-02-03T04:44:24;13.10;;;6.67;;
1885;SDS011;943;51.568;6.998;2023-02-03T04:46:52;14.50;;;6.30;;
1885;SDS011;943;51.568;6.998;2023-02-03T04:49:20;12.10;;;6.70;;
1885;SDS011;943;51.568;6.998;2023-02-03T04:51:48;10.03;;;5.40;;
1885;SDS011;943;51.568;6.998;2023-02-03T04:54:16;12.13;;;6.47;;
1885;SDS011;943;51.568;6.998;2023-02-03T04:56:44;11.40;;;5.87;;
1885;SDS011;943;51.568;6.998;2023-02-03T04:59:12;15.30;;;6.50;;
1885;SDS011;943;51.568;6.998;2023-02-03T05:01:40;11.60;;;6.30;;
1885;SDS011;943;51.568;6.998;2023-02-03T05:04:07;12.10;;;5.20;;
1885;SDS011;943;51.568;6.998;2023-02-03T05:06:35;10.97;;;5.13;;
1885;SDS011;943;51.568;6.998;2023-02-03T05:09:03;10.87;;;5.83;;
1885;SDS011;943;51.568;6.998;2023-02-03T05:11:32;14.37;;;6.40;;
1885;SDS011;943;51.568;6.998;2023-02-03T05:14:00;6.60;;;4.70;;
1885;SDS011;943;51.568;6.998;2023-02-03T05:16:27;9.67;;;5.30;;
1885;SDS011;943;51.568;6.998;2023-02-03T05:18:55;10.00;;;5.53;;
1885;SDS011;943;51.568;6.998;2023-02-03T05:21:23;8.83;;;5.53;;
1885;SDS011;943;51.568;6.998;2023-02-03T05:23:51;11.67;;;6.30;;
1885;SDS011;943;51.568;6.998;2023-02-03T05:26:19;10.03;;;6.37;;
1885;SDS011;943;51.568;6.998;2023-02-03T05:28:47;10.37;;;6.27;;
1885;SDS011;943;51.568;6.998;2023-02-03T05:31:17;10.13;;;5.90;;
1885;SDS011;943;51.568;6.998;2023-02-03T05:33:45;13.20;;;5.33;;
1885;SDS011;943;51.568;6.998;2023-02-03T05:36:12;9.43;;;5.53;;
1885;SDS011;943;51.568;6.998;2023-02-03T05:38:40;8.90;;;5.90;;
1885;SDS011;943;51.568;6.998;2023-02-03T05:41:08;11.80;;;5.27;;
1885;SDS011;943;51.568;6.998;2023-02-03T05:43:57;9.47;;;4.57;;
1885;SDS011;943;51.568;6.998;2023-02-03T05:46:25;8.80;;;4.33;;
1885;SDS011;943;51.568;6.998;2023-02-03T05:48:53;8.27;;;4.80;;
1885;SDS011;943;51.568;6.998;2023-02-03T05:51:27;9.30;;;4.60;;
1885;SDS011;943;51.568;6.998;2023-02-03T05:53:55;6.50;;;3.90;;
1885;SDS011;943;51.568;6.998;2023-02-03T05:56:23;7.07;;;3.93;;
1885;SDS011;943;51.568;6.998;2023-02-03T05:58:52;10.10;;;4.47;;
1885;SDS011;943;51.568;6.998;2023-02-03T06:01:19;8.63;;;4.40;;
1885;SDS011;943;51.568;6.998;2023-02-03T06:03:48;12.50;;;4.17;;
1885;SDS011;943;51.568;6.998;2023-02-03T06:06:16;9.90;;;5.13;;
1885;SDS011;943;51.568;6.998;2023-02-03T06:08:44;8.73;;;4.57;;
1885;SDS011;943;51.568;6.998;2023-02-03T06:11:12;12.40;;;5.00;;
1885;SDS011;943;51.568;6.998;2023-02-03T06:13:40;9.40;;;4.13;;
1885;SDS011;943;51.568;6.998;2023-02-03T06:16:07;7.07;;;3.33;;
1885;SDS011;943;51.568;6.998;2023-02-03T06:18:35;6.17;;;3.30;;
1885;SDS011;943;51.568;6.998;2023-02-03T06:21:03;6.10;;;3.27;;
1885;SDS011;943;51.568;6.998;2023-02-03T06:23:32;7.53;;;4.07;;
1885;SDS011;943;51.568;6.998;2023-02-03T06:26:00;7.50;;;3.40;;
1885;SDS011;943;51.568;6.998;2023-02-03T06:28:27;8.60;;;3.50;;
1885;SDS011;943;51.568;6.998;2023-02-03T06:30:55;7.77;;;3.03;;
1885;SDS011;943;51.568;6.998;2023-02-03T06:33:23;8.03;;;2.63;;
1885;SDS011;943;51.568;6.998;2023-02-03T06:35:52;9.33;;;3.30;;
1885;SDS011;943;51.568;6.998;2023-02-03T06:38:20;5.63;;;3.27;;
1885;SDS011;943;51.568;6.998;2023-02-03T06:40:49;8.43;;;3.33;;
1885;SDS011;943;51.568;6.998;2023-02-03T06:43:17;11.10;;;3.97;;
1885;SDS011;943;51.568;6.998;2023-02-03T06:45:45;8.30;;;3.03;;
1885;SDS011;943;51.568;6.998;2023-02-03T06:48:14;7.70;;;3.97;;
1885;SDS011;943;51.568;6.998;2023-02-03T06:50:42;8.10;;;3.60;;
1885;SDS011;943;51.568;6.998;2023-02-03T06:53:14;9.30;;;3.90;;
1885;SDS011;943;51.568;6.998;2023-02-03T06:55:42;8.30;;;3.60;;
1885;SDS011;943;51.568;6.998;2023-02-03T06:58:10;7.20;;;3.90;;
1885;SDS011;943;51.568;6.998;2023-02-03T07:00:37;6.37;;;3.57;;
1885;SDS011;943;51.568;6.998;2023-02-03T07:03:05;11.03;;;4.03;;
1885;SDS011;943;51.568;6.998;2023-02-03T07:05:33;7.43;;;4.10;;
1885;SDS011;943;51.568;6.998;2023-02-03T07:08:02;11.20;;;3.90;;
1885;SDS011;943;51.568;6.998;2023-02-03T07:10:30;14.77;;;3.43;;
1885;SDS011;943;51.568;6.998;2023-02-03T07:13:07;11.70;;;4.10;;
1885;SDS011;943;51.568;6.998;2023-02-03T07:15:35;8.23;;;3.93;;
1885;SDS011;943;51.568;6.998;2023-02-03T07:18:03;6.90;;;4.13;;
1885;SDS011;943;51.568;6.998;2023-02-03T07:20:32;6.80;;;3.50;;
1885;SDS011;943;51.568;6.998;2023-02-03T07:22:59;9.63;;;3.63;;
1885;SDS011;943;51.568;6.998;2023-02-03T07:25:27;6.83;;;4.50;;
1885;SDS011;943;51.568;6.998;2023-02-03T07:27:57;5.53;;;3.83;;
1885;SDS011;943;51.568;6.998;2023-02-03T07:30:24;7.80;;;3.63;;
1885;SDS011;943;51.568;6.998;2023-02-03T07:32:53;4.80;;;3.10;;
1885;SDS011;943;51.568;6.998;2023-02-03T07:35:21;7.33;;;3.00;;
1885;SDS011;943;51.568;6.998;2023-02-03T07:37:49;9.87;;;3.90;;
1885;SDS011;943;51.568;6.998;2023-02-03T07:40:16;9.93;;;3.60;;
1885;SDS011;943;51.568;6.998;2023-02-03T07:42:46;6.23;;;3.80;;
1885;SDS011;943;51.568;6.998;2023-02-03T07:45:16;4.47;;;3.20;;
1885;SDS011;943;51.568;6.998;2023-02-03T07:47:44;7.50;;;3.67;;
1885;SDS011;943;51.568;6.998;2023-02-03T07:50:12;9.50;;;4.37;;
1885;SDS011;943;51.568;6.998;2023-02-03T07:52:40;6.97;;;4.10;;
1885;SDS011;943;51.568;6.998;2023-02-03T07:55:08;6.57;;;4.10;;
1885;SDS011;943;51.568;6.998;2023-02-03T07:57:36;16.47;;;4.80;;
1885;SDS011;943;51.568;6.998;2023-02-03T08:00:10;6.03;;;3.73;;
1885;SDS011;943;51.568;6.998;2023-02-03T08:02:42;6.43;;;3.53;;
1885;SDS011;943;51.568;6.998;2023-02-03T08:05:11;6.63;;;3.53;;
1885;SDS011;943;51.568;6.998;2023-02-03T08:07:41;10.53;;;4.57;;
1885;SDS011;943;51.568;6.998;2023-02-03T08:10:12;15.10;;;4.30;;
1885;SDS011;943;51.568;6.998;2023-02-03T08:12:42;10.90;;;4.50;;
1885;SDS011;943;51.568;6.998;2023-02-03T08:15:12;8.23;;;3.80;;
1885;SDS011;943;51.568;6.998;2023-02-03T08:17:43;9.43;;;4.13;;
1885;SDS011;943;51.568;6.998;2023-02-03T08:20:12;6.33;;;3.70;;
1885;SDS011;943;51.568;6.998;2023-02-03T08:22:42;9.03;;;3.90;;
1885;SDS011;943;51.568;6.998;2023-02-03T08:25:11;8.10;;;4.70;;
1885;SDS011;943;51.568;6.998;2023-02-03T08:27:39;6.60;;;4.13;;
1885;SDS011;943;51.568;6.998;2023-02-03T08:30:10;10.03;;;5.47;;
1885;SDS011;943;51.568;6.998;2023-02-03T08:32:40;9.00;;;3.70;;
1885;SDS011;943;51.568;6.998;2023-02-03T08:35:08;6.10;;;4.63;;
1885;SDS011;943;51.568;6.998;2023-02-03T08:37:39;6.10;;;3.50;;
1885;SDS011;943;51.568;6.998;2023-02-03T08:40:08;6.47;;;4.17;;
1885;SDS011;943;51.568;6.998;2023-02-03T08:42:37;10.03;;;4.30;;
1885;SDS011;943;51.568;6.998;2023-02-03T08:45:05;9.17;;;4.50;;
1885;SDS011;943;51.568;6.998;2023-02-03T08:47:34;12.10;;;5.10;;
1885;SDS011;943;51.568;6.998;2023-02-03T08:50:04;10.97;;;5.30;;
1885;SDS011;943;51.568;6.998;2023-02-03T08:52:35;6.57;;;4.00;;
1885;SDS011;943;51.568;6.998;2023-02-03T08:55:03;10.47;;;4.67;;
1885;SDS011;943;51.568;6.998;2023-02-03T08:57:33;9.83;;;4.13;;
1885;SDS011;943;51.568;6.998;2023-02-03T09:00:03;10.63;;;4.63;;
1885;SDS011;943;51.568;6.998;2023-02-03T09:02:33;9.03;;;4.73;;
1885;SDS011;943;51.568;6.998;2023-02-03T09:05:00;12.13;;;4.40;;
1885;SDS011;943;51.568;6.998;2023-02-03T09:07:29;11.13;;;4.80;;
1885;SDS011;943;51.568;6.998;2023-02-03T09:09:56;11.83;;;6.10;;
1885;SDS011;943;51.568;6.998;2023-02-03T09:12:25;11.27;;;4.83;;
1885;SDS011;943;51.568;6.998;2023-02-03T09:14:52;8.80;;;5.00;;
1885;SDS011;943;51.568;6.998;2023-02-03T09:17:20;10.90;;;4.77;;
1885;SDS011;943;51.568;6.998;2023-02-03T09:19:48;7.23;;;5.20;;
1885;SDS011;943;51.568;6.998;2023-02-03T09:22:16;11.27;;;5.37;;
1885;SDS011;943;51.568;6.998;2023-02-03T09:24:44;9.57;;;5.67;;
1885;SDS011;943;51.568;6.998;2023-02-03T09:27:12;9.40;;;6.20;;
1885;SDS011;943;51.568;6.998;2023-02-03T09:29:40;10.33;;;6.00;;
1885;SDS011;943;51.568;6.998;2023-02-03T09:32:08;9.50;;;5.00;;
1885;SDS011;943;51.568;6.998;2023-02-03T09:34:37;12.63;;;6.10;;
1885;SDS011;943;51.568;6.998;2023-02-03T09:37:07;10.23;;;5.07;;
1885;SDS011;943;51.568;6.998;2023-02-03T09:39:36;8.93;;;4.93;;
1885;SDS011;943;51.568;6.998;2023-02-03T09:42:07;11.63;;;4.80;;
1885;SDS011;943;51.568;6.998;2023-02-03T09:45:23;8.70;;;5.10;;
1885;SDS011;943;51.568;6.998;2023-02-03T09:48:10;10.63;;;6.20;;
1885;SDS011;943;51.568;6.998;2023-02-03T09:50:48;10.07;;;6.10;;
1885;SDS011;943;51.568;6.998;2023-02-03T09:53:25;12.80;;;6.00;;
1885;SDS011;943;51.568;6.998;2023-02-03T09:56:19;11.10;;;5.80;;
1885;SDS011;943;51.568;6.998;2023-02-03T09:59:00;8.10;;;5.20;;
1885;SDS011;943;51.568;6.998;2023-02-03T10:01:33;16.27;;;6.20;;
1885;SDS011;943;51.568;6.998;2023-02-03T10:08:01;9.30;;;5.40;;
1885;SDS011;943;51.568;6.998;2023-02-03T10:11:09;18.63;;;6.13;;
1885;SDS011;943;51.568;6.998;2023-02-03T10:20:10;11.47;;;5.63;;
1885;SDS011;943;51.568;6.998;2023-02-03T10:23:28;9.60;;;5.37;;
1885;SDS011;943;51.568;6.998;2023-02-03T10:26:08;7.53;;;5.53;;
1885;SDS011;943;51.568;6.998;2023-02-03T10:31:54;16.90;;;7.70;;
1885;SDS011;943;51.568;6.998;2023-02-03T10:34:24;12.70;;;5.43;;
1885;SDS011;943;51.568;6.998;2023-02-03T10:36:56;13.13;;;5.80;;
1885;SDS011;943;51.568;6.998;2023-02-03T10:39:55;8.23;;;5.70;;
1885;SDS011;943;51.568;6.998;2023-02-03T10:42:30;11.90;;;5.83;;
1885;SDS011;943;51.568;6.998;2023-02-03T10:45:20;12.00;;;5.90;;
1885;SDS011;943;51.568;6.998;2023-02-03T10:47:51;11.50;;;6.57;;
1885;SDS011;943;51.568;6.998;2023-02-03T10:50:23;9.07;;;5.97;;
1885;SDS011;943;51.568;6.998;2023-02-03T10:56:06;16.00;;;6.07;;
1885;SDS011;943;51.568;6.998;2023-02-03T10:58:47;12.13;;;6.23;;
1885;SDS011;943;51.568;6.998;2023-02-03T11:01:37;14.13;;;6.27;;
1885;SDS011;943;51.568;6.998;2023-02-03T11:04:24;17.83;;;6.50;;
1885;SDS011;943;51.568;6.998;2023-02-03T11:06:58;14.03;;;6.90;;
1885;SDS011;943;51.568;6.998;2023-02-03T11:12:17;14.50;;;6.30;;
1885;SDS011;943;51.568;6.998;2023-02-03T11:14:47;14.77;;;6.83;;
1885;SDS011;943;51.568;6.998;2023-02-03T11:17:19;12.17;;;6.87;;
1885;SDS011;943;51.568;6.998;2023-02-03T11:19:59;8.87;;;6.60;;
1885;SDS011;943;51.568;6.998;2023-02-03T11:22:42;12.23;;;6.90;;
1885;SDS011;943;51.568;6.998;2023-02-03T11:25:27;16.10;;;6.57;;
1885;SDS011;943;51.568;6.998;2023-02-03T11:28:02;9.67;;;5.60;;
1885;SDS011;943;51.568;6.998;2023-02-03T11:30:37;10.17;;;7.20;;
1885;SDS011;943;51.568;6.998;2023-02-03T11:33:15;16.90;;;7.90;;
1885;SDS011;943;51.568;6.998;2023-02-03T11:35:56;12.67;;;7.20;;
1885;SDS011;943;51.568;6.998;2023-02-03T11:38:29;12.00;;;6.20;;
1885;SDS011;943;51.568;6.998;2023-02-03T11:41:13;15.80;;;8.57;;
1885;SDS011;943;51.568;6.998;2023-02-03T11:43:50;12.13;;;7.17;;
1885;SDS011;943;51.568;6.998;2023-02-03T11:46:23;16.43;;;6.73;;
1885;SDS011;943;51.568;6.998;2023-02-03T11:49:02;13.13;;;6.90;;
1885;SDS011;943;51.568;6.998;2023-02-03T12:06:00;11.60;;;6.30;;
1885;SDS011;943;51.568;6.998;2023-02-03T12:24:33;11.73;;;5.37;;
1885;SDS011;943;51.568;6.998;2023-02-03T12:30:17;11.03;;;5.43;;
1885;SDS011;943;51.568;6.998;2023-02-03T12:33:03;12.60;;;5.77;;
1885;SDS011;943;51.568;6.998;2023-02-03T12:35:59;9.27;;;4.50;;
1885;SDS011;943;51.568;6.998;2023-02-03T12:42:13;10.67;;;5.20;;
1885;SDS011;943;51.568;6.998;2023-02-03T12:50:50;13.23;;;5.20;;
1885;SDS011;943;51.568;6.998;2023-02-03T12:53:36;19.23;;;5.47;;
1885;SDS011;943;51.568;6.998;2023-02-03T12:56:32;7.00;;;4.27;;
1885;SDS011;943;51.568;6.998;2023-02-03T12:59:12;10.13;;;5.20;;
1885;SDS011;943;51.568;6.998;2023-02-03T13:01:56;8.27;;;3.67;;
1885;SDS011;943;51.568;6.998;2023-02-03T13:04:45;7.20;;;4.00;;
1885;SDS011;943;51.568;6.998;2023-02-03T13:07:42;9.70;;;4.40;;
1885;SDS011;943;51.568;6.998;2023-02-03T13:10:36;5.90;;;4.30;;
1885;SDS011;943;51.568;6.998;2023-02-03T13:13:26;12.57;;;4.60;;
1885;SDS011;943;51.568;6.998;2023-02-03T13:16:11;7.37;;;4.23;;
1885;SDS011;943;51.568;6.998;2023-02-03T13:18:48;13.33;;;4.03;;
1885;SDS011;943;51.568;6.998;2023-02-03T13:21:31;14.07;;;5.60;;
1885;SDS011;943;51.568;6.998;2023-02-03T13:24:01;7.60;;;3.37;;
1885;SDS011;943;51.568;6.998;2023-02-03T13:39:44;7.90;;;4.50;;
1885;SDS011;943;51.568;6.998;2023-02-03T13:42:54;8.60;;;4.70;;
1885;SDS011;943;51.568;6.998;2023-02-03T13:45:39;10.77;;;4.27;;
1885;SDS011;943;51.568;6.998;2023-02-03T13:48:16;7.83;;;4.33;;
1885;SDS011;943;51.568;6.998;2023-02-03T13:51:12;12.13;;;5.30;;
1885;SDS011;943;51.568;6.998;2023-02-03T13:54:04;13.73;;;4.40;;
1885;SDS011;943;51.568;6.998;2023-02-03T13:56:59;13.83;;;5.63;;
1885;SDS011;943;51.568;6.998;2023-02-03T13:59:46;10.43;;;5.00;;
1885;SDS011;943;51.568;6.998;2023-02-03T14:04:49;12.70;;;4.67;;
1885;SDS011;943;51.568;6.998;2023-02-03T14:07:34;14.87;;;5.27;;
1885;SDS011;943;51.568;6.998;2023-02-03T14:23:14;16.03;;;5.40;;
1885;SDS011;943;51.568;6.998;2023-02-03T14:25:54;14.73;;;4.30;;
1885;SDS011;943;51.568;6.998;2023-02-03T14:28:41;17.73;;;4.30;;
1885;SDS011;943;51.568;6.998;2023-02-03T14:31:23;13.63;;;5.13;;
1885;SDS011;943;51.568;6.998;2023-02-03T14:34:07;12.07;;;4.10;;
1885;SDS011;943;51.568;6.998;2023-02-03T14:49:10;20.30;;;5.20;;
1885;SDS011;943;51.568;6.998;2023-02-03T14:55:30;17.23;;;6.40;;
1885;SDS011;943;51.568;6.998;2023-02-03T15:06:42;13.33;;;4.37;;
1885;SDS011;943;51.568;6.998;2023-02-03T15:09:21;22.67;;;5.37;;
1885;SDS011;943;51.568;6.998;2023-02-03T15:12:15;17.20;;;5.50;;
1885;SDS011;943;51.568;6.998;2023-02-03T15:14:50;18.90;;;6.40;;
1885;SDS011;943;51.568;6.998;2023-02-03T15:17:24;23.40;;;5.27;;
1885;SDS011;943;51.568;6.998;2023-02-03T15:19:56;15.93;;;4.63;;
1885;SDS011;943;51.568;6.998;2023-02-03T15:22:25;22.90;;;4.53;;
1885;SDS011;943;51.568;6.998;2023-02-03T15:24:57;28.50;;;5.47;;
1885;SDS011;943;51.568;6.998;2023-02-03T15:27:41;20.37;;;5.77;;
1885;SDS011;943;51.568;6.998;2023-02-03T15:30:16;15.50;;;6.00;;
1885;SDS011;943;51.568;6.998;2023-02-03T15:33:12;19.83;;;5.63;;
1885;SDS011;943;51.568;6.998;2023-02-03T15:35:48;18.47;;;5.00;;
1885;SDS011;943;51.568;6.998;2023-02-03T15:38:34;25.67;;;6.97;;
1885;SDS011;943;51.568;6.998;2023-02-03T15:41:20;13.60;;;5.10;;
1885;SDS011;943;51.568;6.998;2023-02-03T15:43:56;16.73;;;5.27;;
1885;SDS011;943;51.568;6.998;2023-02-03T15:46:40;19.57;;;4.93;;
1885;SDS011;943;51.568;6.998;2023-02-03T15:49:37;19.10;;;4.77;;
1885;SDS011;943;51.568;6.998;2023-02-03T15:52:13;27.27;;;6.10;;
1885;SDS011;943;51.568;6.998;2023-02-03T15:54:51;19.83;;;5.00;;
1885;SDS011;943;51.568;6.998;2023-02-03T15:58:02;18.90;;;6.33;;
1885;SDS011;943;51.568;6.998;2023-02-03T16:00:33;18.50;;;5.20;;
1885;SDS011;943;51.568;6.998;2023-02-03T16:03:33;16.50;;;5.03;;
1885;SDS011;943;51.568;6.998;2023-02-03T16:09:22;16.33;;;5.40;;
1885;SDS011;943;51.568;6.998;2023-02-03T16:12:16;19.90;;;5.33;;
1885;SDS011;943;51.568;6.998;2023-02-03T16:14:57;22.63;;;5.97;;
1885;SDS011;943;51.568;6.998;2023-02-03T16:17:34;16.57;;;4.50;;
1885;SDS011;943;51.568;6.998;2023-02-03T16:22:38;20.47;;;6.00;;
1885;SDS011;943;51.568;6.998;2023-02-03T16:25:21;22.97;;;6.13;;
1885;SDS011;943;51.568;6.998;2023-02-03T16:28:00;17.07;;;5.50;;
1885;SDS011;943;51.568;6.998;2023-02-03T16:31:12;11.07;;;3.87;;
1885;SDS011;943;51.568;6.998;2023-02-03T16:34:16;24.73;;;5.70;;
1885;SDS011;943;51.568;6.998;2023-02-03T16:37:19;22.57;;;5.17;;
1885;SDS011;943;51.568;6.998;2023-02-03T16:40:28;27.13;;;5.60;;
1885;SDS011;943;51.568;6.998;2023-02-03T16:43:14;16.40;;;5.30;;
1885;SDS011;943;51.568;6.998;2023-02-03T16:46:02;9.70;;;4.80;;
1885;SDS011;943;51.568;6.998;2023-02-03T16:48:56;20.50;;;6.87;;
1885;SDS011;943;51.568;6.998;2023-02-03T16:51:42;23.43;;;5.90;;
1885;SDS011;943;51.568;6.998;2023-02-03T16:54:12;14.67;;;5.37;;
1885;SDS011;943;51.568;6.998;2023-02-03T16:56:42;16.63;;;5.43;;
1885;SDS011;943;51.568;6.998;2023-02-03T16:59:11;20.93;;;4.60;;
1885;SDS011;943;51.568;6.998;2023-02-03T17:01:39;13.50;;;4.83;;
1885;SDS011;943;51.568;6.998;2023-02-03T17:04:07;22.80;;;5.50;;
1885;SDS011;943;51.568;6.998;2023-02-03T17:06:37;16.17;;;4.93;;
1885;SDS011;943;51.568;6.998;2023-02-03T17:09:07;15.93;;;4.40;;
1885;SDS011;943;51.568;6.998;2023-02-03T17:11:35;18.30;;;5.10;;
1885;SDS011;943;51.568;6.998;2023-02-03T17:14:02;18.13;;;5.63;;
1885;SDS011;943;51.568;6.998;2023-02-03T17:16:30;29.70;;;6.37;;
1885;SDS011;943;51.568;6.998;2023-02-03T17:19:00;19.63;;;4.67;;
1885;SDS011;943;51.568;6.998;2023-02-03T17:21:28;18.33;;;3.93;;
1885;SDS011;943;51.568;6.998;2023-02-03T17:23:57;19.33;;;4.63;;
1885;SDS011;943;51.568;6.998;2023-02-03T17:26:26;15.77;;;5.00;;
1885;SDS011;943;51.568;6.998;2023-02-03T17:28:54;14.07;;;4.47;;
1885;SDS011;943;51.568;6.998;2023-02-03T17:31:24;18.87;;;5.97;;
1885;SDS011;943;51.568;6.998;2023-02-03T17:33:52;19.40;;;4.70;;
1885;SDS011;943;51.568;6.998;2023-02-03T17:36:20;17.23;;;4.97;;
1885;SDS011;943;51.568;6.998;2023-02-03T17:38:53;19.13;;;5.47;;
1885;SDS011;943;51.568;6.998;2023-02-03T17:41:41;19.17;;;5.43;;
1885;SDS011;943;51.568;6.998;2023-02-03T17:44:25;16.93;;;5.40;;
1885;SDS011;943;51.568;6.998;2023-02-03T17:47:11;17.97;;;5.10;;
1885;SDS011;943;51.568;6.998;2023-02-03T17:49:56;24.23;;;6.37;;
1885;SDS011;943;51.568;6.998;2023-02-03T17:52:42;24.43;;;5.90;;
1885;SDS011;943;51.568;6.998;2023-02-03T17:55:28;15.30;;;5.73;;
1885;SDS011;943;51.568;6.998;2023-02-03T17:57:59;20.87;;;6.47;;
1885;SDS011;943;51.568;6.998;2023-02-03T18:00:27;19.17;;;6.30;;
1885;SDS011;943;51.568;6.998;2023-02-03T18:02:56;16.37;;;6.83;;
1885;SDS011;943;51.568;6.998;2023-02-03T18:05:24;21.50;;;7.23;;
1885;SDS011;943;51.568;6.998;2023-02-03T18:07:54;21.13;;;6.57;;
1885;SDS011;943;51.568;6.998;2023-02-03T18:10:23;26.80;;;7.87;;
1885;SDS011;943;51.568;6.998;2023-02-03T18:12:51;19.17;;;6.00;;
1885;SDS011;943;51.568;6.998;2023-02-03T18:15:19;23.83;;;6.57;;
1885;SDS011;943;51.568;6.998;2023-02-03T18:17:47;20.23;;;5.77;;
1885;SDS011;943;51.568;6.998;2023-02-03T18:20:15;17.77;;;7.20;;
1885;SDS011;943;51.568;6.998;2023-02-03T18:22:43;26.73;;;7.50;;
1885;SDS011;943;51.568;6.998;2023-02-03T18:25:11;25.70;;;7.17;;
1885;SDS011;943;51.568;6.998;2023-02-03T18:27:42;26.07;;;7.13;;
1885;SDS011;943;51.568;6.998;2023-02-03T18:30:11;13.60;;;6.57;;
1885;SDS011;943;51.568;6.998;2023-02-03T18:32:40;15.20;;;5.97;;
1885;SDS011;943;51.568;6.998;2023-02-03T18:35:08;21.57;;;5.87;;